Time;durP1;ratioP1;P1;durP2;ratioP2;P2;SDS_P1;SDS_P2;PMS_P1;PMS_P2;Temp;Humidity;BMP_temperature;BMP_pressure;BME280_temperature;BME280_humidity;BME280_pressure;Samples;Min_cycle;Max_cycle;Signal;HPM_P1;HPM_P2
2021/03/26 00:01:32;;;;;;;5.85;3.97;;;7.80;62.90;;;;;;4962048;28;20096;-63
2021/03/26 00:04:04;;;;;;;6.00;4.00;;;7.70;63.30;;;;;;4977975;28;20043;-63
2021/03/26 00:06:32;;;;;;;7.07;4.45;;;7.70;63.10;;;;;;4992494;28;20046;-64
2021/03/26 00:08:59;;;;;;;7.30;4.70;;;7.70;63.30;;;;;;4979269;28;20379;-63
2021/03/26 00:11:30;;;;;;;7.10;4.40;;;7.70;63.80;;;;;;4972404;28;20034;-63
2021/03/26 00:13:59;;;;;;;8.15;4.80;;;7.70;63.80;;;;;;4976501;28;20062;-63
2021/03/26 00:16:24;;;;;;;7.80;4.43;;;7.70;63.80;;;;;;4978217;28;20042;-64
2021/03/26 00:18:51;;;;;;;6.47;4.30;;;7.70;64.00;;;;;;4972205;28;20042;-63
2021/03/26 00:21:20;;;;;;;8.23;4.20;;;7.80;64.10;;;;;;4979175;28;20042;-63
2021/03/26 00:23:50;;;;;;;7.43;4.22;;;7.80;64.60;;;;;;4978616;28;20073;-63
2021/03/26 00:26:19;;;;;;;6.18;3.83;;;7.80;64.40;;;;;;4978543;28;20058;-63
2021/03/26 00:28:47;;;;;;;6.65;4.00;;;7.80;64.20;;;;;;4978125;28;20125;-63
2021/03/26 00:31:16;;;;;;;10.50;4.90;;;7.80;64.10;;;;;;4991268;28;20035;-63
2021/03/26 00:33:48;;;;;;;7.10;4.32;;;7.80;64.50;;;;;;4976487;28;20045;-63
2021/03/26 00:36:16;;;;;;;7.22;4.40;;;7.80;64.60;;;;;;4979798;28;20054;-63
2021/03/26 00:38:46;;;;;;;7.03;4.65;;;7.90;64.30;;;;;;4975782;28;20042;-63
2021/03/26 00:41:19;;;;;;;8.15;4.90;;;7.90;64.20;;;;;;4980338;28;20509;-63
2021/03/26 00:43:45;;;;;;;6.47;4.38;;;7.90;64.60;;;;;;4972013;28;20038;-63
2021/03/26 00:46:15;;;;;;;7.78;4.43;;;7.90;64.30;;;;;;4974000;28;20045;-63
2021/03/26 00:48:45;;;;;;;7.60;4.65;;;7.90;64.60;;;;;;4978125;28;20522;-63
2021/03/26 00:51:15;;;;;;;6.93;4.43;;;7.80;64.30;;;;;;4960961;28;20042;-63
2021/03/26 00:53:46;;;;;;;7.82;4.80;;;7.80;64.10;;;;;;4978369;28;20034;-63
2021/03/26 00:56:11;;;;;;;7.18;4.28;;;7.80;64.50;;;;;;4976736;28;20113;-63
2021/03/26 00:58:39;;;;;;;10.20;4.65;;;7.80;64.30;;;;;;4977628;28;20477;-63
2021/03/26 01:01:10;;;;;;;8.65;5.28;;;7.80;64.40;;;;;;4977176;28;20156;-63
2021/03/26 01:03:35;;;;;;;9.45;5.72;;;7.80;64.50;;;;;;4976080;28;20501;-63
2021/03/26 01:06:07;;;;;;;8.73;5.20;;;7.70;64.20;;;;;;4978980;28;20050;-63
2021/03/26 01:08:37;;;;;;;9.77;5.13;;;7.70;64.70;;;;;;4976877;28;20035;-63
2021/03/26 01:11:28;;;;;;;9.88;6.10;;;7.60;64.70;;;;;;4972159;28;20125;-63
2021/03/26 01:13:56;;;;;;;11.40;6.57;;;7.50;65.20;;;;;;4975705;28;20031;-64
2021/03/26 01:16:27;;;;;;;11.45;6.45;;;7.50;65.20;;;;;;4978365;28;20047;-64
2021/03/26 01:18:56;;;;;;;9.75;5.90;;;7.40;65.50;;;;;;4990231;28;20122;-63
2021/03/26 01:21:28;;;;;;;12.40;6.47;;;7.40;65.30;;;;;;4975127;28;20075;-63
2021/03/26 01:23:57;;;;;;;11.20;7.35;;;7.40;65.70;;;;;;4975511;28;20050;-63
2021/03/26 01:26:29;;;;;;;10.65;6.68;;;7.40;65.90;;;;;;4974770;28;20039;-63
2021/03/26 01:28:55;;;;;;;13.10;6.90;;;7.30;66.00;;;;;;4975946;28;20034;-63
2021/03/26 01:31:27;;;;;;;14.55;7.90;;;7.30;65.90;;;;;;4975861;28;20035;-63
2021/03/26 01:33:55;;;;;;;11.07;6.90;;;7.20;66.20;;;;;;4974672;28;20117;-63
2021/03/26 01:36:24;;;;;;;10.82;6.28;;;7.20;66.20;;;;;;4977027;28;20038;-64
2021/03/26 01:38:54;;;;;;;11.07;7.00;;;7.20;66.10;;;;;;4978088;28;20034;-63
2021/03/26 01:41:25;;;;;;;10.23;6.63;;;7.20;66.40;;;;;;4992187;28;20074;-63
2021/03/26 01:43:56;;;;;;;11.52;7.00;;;7.20;66.50;;;;;;4976344;28;20046;-63
2021/03/26 01:46:22;;;;;;;10.40;7.13;;;7.20;66.40;;;;;;4975705;28;20130;-64
2021/03/26 01:48:55;;;;;;;12.23;7.72;;;7.20;66.20;;;;;;4972656;28;20066;-63
2021/03/26 01:51:25;;;;;;;11.95;7.18;;;7.20;66.40;;;;;;4973633;28;20101;-64
2021/03/26 01:53:54;;;;;;;11.48;7.43;;;7.20;66.70;;;;;;4975281;28;20449;-63
2021/03/26 01:56:22;;;;;;;12.07;7.40;;;7.20;67.10;;;;;;4975216;28;20038;-63
2021/03/26 01:58:50;;;;;;;12.18;7.53;;;7.20;67.40;;;;;;4975143;28;20097;-63
2021/03/26 02:01:23;;;;;;;11.73;7.10;;;7.20;67.50;;;;;;4972804;28;20042;-63
2021/03/26 02:03:52;;;;;;;10.98;6.60;;;7.20;67.60;;;;;;4973824;28;20039;-63
2021/03/26 02:06:34;;;;;;;10.38;6.47;;;7.20;67.30;;;;;;4976726;28;20427;-63
2021/03/26 02:09:18;;;;;;;10.57;6.70;;;7.20;67.80;;;;;;4977397;28;20462;-62
2021/03/26 02:11:58;;;;;;;10.75;6.35;;;7.30;67.90;;;;;;4971541;28;20509;-63
2021/03/26 02:14:38;;;;;;;9.63;6.43;;;7.30;68.30;;;;;;4977823;28;20494;-64
2021/03/26 02:17:07;;;;;;;9.48;6.10;;;7.30;67.30;;;;;;4971978;28;20038;-63
2021/03/26 02:19:55;;;;;;;10.55;6.72;;;7.30;66.70;;;;;;4977882;28;20039;-63
2021/03/26 02:22:25;;;;;;;9.45;6.38;;;7.40;67.50;;;;;;4976200;28;20039;-64
2021/03/26 02:24:54;;;;;;;9.23;6.45;;;7.40;66.70;;;;;;4979257;28;20037;-63
2021/03/26 02:27:28;;;;;;;12.27;6.63;;;7.40;66.70;;;;;;4980401;28;20038;-64
2021/03/26 02:29:57;;;;;;;9.13;6.22;;;7.40;67.00;;;;;;4977782;28;20038;-64
2021/03/26 02:32:35;;;;;;;10.80;6.18;;;7.40;66.70;;;;;;4980230;28;20035;-64
2021/03/26 02:35:04;;;;;;;10.40;5.95;;;7.40;67.10;;;;;;4980216;28;20106;-64
2021/03/26 02:37:34;;;;;;;8.82;5.72;;;7.30;66.90;;;;;;4974224;28;20039;-64
2021/03/26 02:40:03;;;;;;;8.90;5.90;;;7.30;66.70;;;;;;4979867;28;20135;-63
2021/03/26 02:42:35;;;;;;;9.27;5.25;;;7.40;66.40;;;;;;4981189;28;20589;-63
2021/03/26 02:45:17;;;;;;;9.93;5.70;;;7.40;66.70;;;;;;4976688;28;20524;-63
2021/03/26 02:48:00;;;;;;;7.90;5.43;;;7.40;67.10;;;;;;4975274;28;20034;-63
2021/03/26 02:50:44;;;;;;;11.55;6.00;;;7.40;66.90;;;;;;4977809;28;20097;-64
2021/03/26 02:54:04;;;;;;;8.43;5.63;;;7.40;66.60;;;;;;4980422;28;20054;-63
2021/03/26 02:56:54;;;;;;;13.23;6.05;;;7.50;67.30;;;;;;4976925;28;20042;-62
2021/03/26 02:59:34;;;;;;;9.27;6.10;;;7.50;67.40;;;;;;4980124;28;20042;-63
2021/03/26 03:02:04;;;;;;;11.13;6.47;;;7.50;66.90;;;;;;4976280;28;20034;-63
2021/03/26 03:04:34;;;;;;;9.80;6.28;;;7.50;66.60;;;;;;4976745;28;20030;-63
2021/03/26 03:07:12;;;;;;;10.30;6.13;;;7.50;66.60;;;;;;4977950;28;20509;-64
2021/03/26 03:09:42;;;;;;;8.52;5.57;;;7.50;66.70;;;;;;4978907;28;20042;-64
2021/03/26 03:12:41;;;;;;;8.90;5.35;;;7.60;66.80;;;;;;4973957;28;20413;-64
2021/03/26 03:15:20;;;;;;;10.95;5.93;;;7.60;67.50;;;;;;4967858;28;20027;-64
2021/03/26 03:18:08;;;;;;;8.95;6.15;;;7.60;66.60;;;;;;4971561;28;20034;-64
2021/03/26 03:20:48;;;;;;;10.80;5.93;;;7.60;66.80;;;;;;4975710;28;20038;-63
2021/03/26 03:23:28;;;;;;;11.43;5.72;;;7.60;66.60;;;;;;4976987;28;20027;-63
2021/03/26 03:26:03;;;;;;;12.35;6.32;;;7.60;66.40;;;;;;4976298;28;20027;-63
2021/03/26 03:28:41;;;;;;;8.07;5.53;;;7.60;66.30;;;;;;4978089;28;20070;-63
2021/03/26 03:31:37;;;;;;;8.20;5.80;;;7.60;66.20;;;;;;4975918;28;20030;-63
2021/03/26 03:34:30;;;;;;;9.43;5.72;;;7.60;66.40;;;;;;4978009;28;20042;-63
2021/03/26 03:37:32;;;;;;;9.07;5.60;;;7.60;66.40;;;;;;4978075;28;20553;-63
2021/03/26 03:40:03;;;;;;;9.73;5.30;;;7.60;66.20;;;;;;4978576;28;20035;-63
2021/03/26 03:42:51;;;;;;;8.52;5.57;;;7.50;65.20;;;;;;4980311;28;20023;-63
2021/03/26 03:45:32;;;;;;;9.02;4.85;;;7.50;66.00;;;;;;4973959;28;20904;-63
2021/03/26 03:48:10;;;;;;;8.85;5.68;;;7.50;65.90;;;;;;4967212;28;20031;-63
2021/03/26 03:51:02;;;;;;;8.90;5.82;;;7.50;65.70;;;;;;4971563;28;20121;-63
2021/03/26 03:53:48;;;;;;;8.40;5.75;;;7.40;66.00;;;;;;4962231;28;20121;-64
2021/03/26 03:56:53;;;;;;;8.38;5.57;;;7.50;65.70;;;;;;4964486;28;20035;-64
2021/03/26 03:59:39;;;;;;;10.40;5.67;;;7.40;65.50;;;;;;4979272;28;20097;-64
2021/03/26 04:02:17;;;;;;;9.98;6.00;;;7.40;65.20;;;;;;4977327;28;20074;-64
2021/03/26 04:04:49;;;;;;;8.05;5.70;;;7.30;64.80;;;;;;4972232;28;20097;-63
2021/03/26 04:07:30;;;;;;;9.23;5.85;;;7.30;65.00;;;;;;4964470;28;20561;-63
2021/03/26 04:10:02;;;;;;;8.55;5.88;;;7.20;65.20;;;;;;4966185;28;20038;-64
2021/03/26 04:12:36;;;;;;;7.90;5.70;;;7.20;65.00;;;;;;4973670;28;20043;-64
2021/03/26 04:15:26;;;;;;;10.25;6.20;;;7.10;65.00;;;;;;4976283;28;20034;-63
2021/03/26 04:18:17;;;;;;;10.23;5.72;;;7.10;66.00;;;;;;4973611;28;20078;-64
2021/03/26 04:21:12;;;;;;;10.43;6.03;;;7.00;65.50;;;;;;4963629;28;20062;-64
2021/03/26 04:23:50;;;;;;;13.07;6.38;;;7.00;65.10;;;;;;4971888;28;20430;-63
2021/03/26 04:26:39;;;;;;;11.18;5.47;;;7.00;64.90;;;;;;4976487;28;20525;-63
2021/03/26 04:29:15;;;;;;;11.55;6.18;;;6.90;65.50;;;;;;4977015;28;20038;-64
2021/03/26 04:31:58;;;;;;;9.13;6.30;;;6.80;64.80;;;;;;4970655;28;20634;-63
2021/03/26 04:34:23;;;;;;;9.23;5.88;;;6.80;65.20;;;;;;4974928;28;20043;-64
2021/03/26 04:37:04;;;;;;;9.52;6.20;;;6.70;64.80;;;;;;4975110;28;20045;-63
2021/03/26 04:39:53;;;;;;;8.10;5.35;;;6.70;65.20;;;;;;4979596;28;20031;-63
2021/03/26 04:42:35;;;;;;;12.23;6.32;;;6.60;65.80;;;;;;4954253;28;20043;-64
2021/03/26 04:45:36;;;;;;;12.40;6.15;;;6.60;65.30;;;;;;4972997;28;20173;-63
2021/03/26 04:48:11;;;;;;;14.90;7.43;;;6.50;66.00;;;;;;4965184;28;20461;-63
2021/03/26 04:51:11;;;;;;;13.88;7.78;;;6.50;65.50;;;;;;4967410;28;20485;-63
2021/03/26 04:53:50;;;;;;;10.80;5.97;;;6.40;66.80;;;;;;4969886;28;20083;-63
2021/03/26 04:56:24;;;;;;;10.15;5.85;;;6.30;66.10;;;;;;4967032;28;20031;-64
2021/03/26 04:59:02;;;;;;;9.35;5.68;;;6.20;66.00;;;;;;4968588;28;20043;-64
2021/03/26 05:01:31;;;;;;;13.90;6.85;;;6.20;66.30;;;;;;4975939;28;20434;-63
2021/03/26 05:04:11;;;;;;;11.07;6.30;;;6.10;66.10;;;;;;4970550;28;20035;-63
2021/03/26 05:06:45;;;;;;;11.30;6.35;;;6.00;66.50;;;;;;4973152;28;20088;-63
2021/03/26 05:09:24;;;;;;;12.47;6.10;;;6.00;66.50;;;;;;4971033;28;20039;-63
2021/03/26 05:11:57;;;;;;;12.35;6.28;;;5.90;67.00;;;;;;4966358;28;20050;-64
2021/03/26 05:14:30;;;;;;;12.82;6.60;;;5.80;66.60;;;;;;4977690;28;20395;-64
2021/03/26 05:17:21;;;;;;;14.55;6.32;;;5.70;66.70;;;;;;4964465;28;20220;-63
2021/03/26 05:19:58;;;;;;;11.18;6.25;;;5.70;67.10;;;;;;4974892;28;20049;-64
2021/03/26 05:22:54;;;;;;;10.95;5.78;;;5.60;66.90;;;;;;4970662;28;20054;-63
2021/03/26 05:25:31;;;;;;;10.80;6.25;;;5.60;67.70;;;;;;4969058;28;20030;-63
2021/03/26 05:28:03;;;;;;;10.38;6.13;;;5.50;67.20;;;;;;4974754;28;20031;-64
2021/03/26 05:30:37;;;;;;;15.52;6.75;;;5.50;67.00;;;;;;4976220;28;20034;-63
2021/03/26 05:33:42;;;;;;;14.50;6.50;;;5.50;67.10;;;;;;4977107;28;20045;-64
2021/03/26 05:36:29;;;;;;;10.88;5.95;;;5.50;67.70;;;;;;4972545;28;20031;-64
2021/03/26 05:39:07;;;;;;;9.65;5.90;;;5.40;67.00;;;;;;4975517;28;20035;-64
2021/03/26 05:41:40;;;;;;;10.43;5.75;;;5.50;67.50;;;;;;4977193;28;20052;-62
2021/03/26 05:44:27;;;;;;;11.30;6.43;;;5.40;67.40;;;;;;4977455;28;20425;-63
2021/03/26 05:47:14;;;;;;;10.75;6.28;;;5.40;67.20;;;;;;4977834;28;20031;-63
2021/03/26 05:50:12;;;;;;;13.57;6.60;;;5.40;68.20;;;;;;4970725;28;20035;-64
2021/03/26 05:53:15;;;;;;;15.60;7.22;;;5.50;68.30;;;;;;4961341;28;20065;-63
2021/03/26 05:56:06;;;;;;;12.65;7.30;;;5.40;68.70;;;;;;4969531;28;20050;-63
2021/03/26 05:59:11;;;;;;;16.88;7.72;;;5.40;69.00;;;;;;4968005;28;20501;-63
2021/03/26 06:01:51;;;;;;;23.45;8.93;;;5.40;69.10;;;;;;4967410;28;20718;-63
2021/03/26 06:04:53;;;;;;;20.00;9.18;;;5.40;68.20;;;;;;4972860;28;20063;-63
2021/03/26 06:07:51;;;;;;;17.30;8.63;;;5.30;69.60;;;;;;4971505;28;20076;-63
2021/03/26 06:10:34;;;;;;;21.00;9.93;;;5.30;69.80;;;;;;4979335;28;20561;-63
2021/03/26 06:13:27;;;;;;;15.02;8.50;;;5.30;69.00;;;;;;4973827;28;20042;-64
2021/03/26 06:16:25;;;;;;;16.75;9.10;;;5.30;70.10;;;;;;4971885;28;20085;-64
2021/03/26 06:19:07;;;;;;;20.58;10.23;;;5.40;70.50;;;;;;4978833;28;20506;-64
2021/03/26 06:21:53;;;;;;;20.02;9.80;;;5.40;70.00;;;;;;4981127;28;20054;-63
2021/03/26 06:24:28;;;;;;;20.23;10.73;;;5.40;70.20;;;;;;4971075;28;20043;-63
2021/03/26 06:27:21;;;;;;;23.83;11.57;;;5.50;70.20;;;;;;4977113;28;20117;-63
2021/03/26 06:30:19;;;;;;;21.52;10.02;;;5.50;70.80;;;;;;4971557;28;20043;-64
2021/03/26 06:32:53;;;;;;;16.85;9.27;;;5.60;71.20;;;;;;4975838;28;20038;-64
2021/03/26 06:35:56;;;;;;;20.40;9.90;;;5.60;70.80;;;;;;4974931;28;20034;-64
2021/03/26 06:38:49;;;;;;;14.75;9.32;;;5.60;72.00;;;;;;4974571;28;20042;-64
2021/03/26 06:41:42;;;;;;;20.17;10.02;;;5.70;72.60;;;;;;4978970;28;20579;-62
2021/03/26 06:44:37;;;;;;;17.45;10.20;;;5.70;72.10;;;;;;4978307;28;20458;-63
2021/03/26 06:47:31;;;;;;;18.60;10.57;;;5.80;72.90;;;;;;4978034;28;20505;-63
2021/03/26 06:50:33;;;;;;;19.00;10.60;;;5.90;73.40;;;;;;4977213;28;20028;-63
2021/03/26 06:53:37;;;;;;;15.63;8.68;;;5.90;73.30;;;;;;4971091;28;20809;-64
2021/03/26 06:56:38;;;;;;;19.48;10.48;;;6.00;73.00;;;;;;4958333;28;20730;-64
2021/03/26 06:59:47;;;;;;;19.48;10.85;;;6.10;73.50;;;;;;4967997;28;20030;-63
2021/03/26 07:02:22;;;;;;;19.67;11.50;;;6.20;73.60;;;;;;4966045;28;20061;-63
2021/03/26 07:04:59;;;;;;;;;;;6.30;72.90;;;;;;4974626;28;20130;-64
2021/03/26 07:07:49;;;;;;;20.77;10.23;;;6.40;74.00;;;;;;4951011;28;19922;-64
2021/03/26 07:10:29;;;;;;;17.83;10.38;;;6.40;72.40;;;;;;4958074;28;20039;-63
2021/03/26 07:13:09;;;;;;;18.52;11.45;;;6.50;73.40;;;;;;4954528;28;20038;-63
2021/03/26 07:15:58;;;;;;;20.73;11.05;;;6.60;73.70;;;;;;4951237;28;20043;-64
2021/03/26 07:18:35;;;;;;;20.63;11.63;;;6.70;74.00;;;;;;4950821;28;20041;-64
2021/03/26 07:21:24;;;;;;;19.42;10.93;;;6.70;73.30;;;;;;4952033;28;20534;-63
2021/03/26 07:24:37;;;;;;;18.85;11.70;;;6.80;73.30;;;;;;4956764;28;20085;-63
2021/03/26 07:27:21;;;;;;;19.75;11.70;;;6.90;74.40;;;;;;4911845;29;20042;-64
2021/03/26 07:30:23;;;;;;;18.98;11.68;;;7.00;73.20;;;;;;4967745;28;20043;-64
2021/03/26 07:33:09;;;;;;;19.80;10.95;;;7.20;73.00;;;;;;4956802;28;20039;-64
2021/03/26 07:36:08;;;;;;;21.25;11.43;;;7.20;72.50;;;;;;4953131;28;20049;-63
2021/03/26 07:39:12;;;;;;;17.42;11.18;;;7.40;73.00;;;;;;4952468;28;20126;-64
2021/03/26 07:42:19;;;;;;;21.08;11.85;;;7.50;72.90;;;;;;4952054;28;20057;-63
2021/03/26 07:45:06;;;;;;;17.63;11.52;;;7.60;72.00;;;;;;4911620;29;20063;-63
2021/03/26 07:47:49;;;;;;;27.13;11.63;;;7.80;72.30;;;;;;4945909;28;20049;-63
2021/03/26 07:50:32;;;;;;;21.70;11.25;;;7.80;71.90;;;;;;4953674;28;20093;-64
2021/03/26 07:53:36;;;;;;;19.55;10.70;;;7.90;71.50;;;;;;4956370;28;20035;-63
2021/03/26 07:56:18;;;;;;;18.65;11.10;;;8.00;71.80;;;;;;4954131;28;20065;-63
2021/03/26 07:59:01;;;;;;;21.83;11.90;;;8.10;71.20;;;;;;4952155;28;20039;-63
2021/03/26 08:01:45;;;;;;;20.58;12.50;;;8.20;71.70;;;;;;4950618;28;20038;-64
2021/03/26 08:04:27;;;;;;;19.63;11.23;;;8.30;71.70;;;;;;4956183;28;20047;-62
2021/03/26 08:07:20;;;;;;;23.08;11.27;;;8.40;71.40;;;;;;4952497;28;20042;-64
2021/03/26 08:10:13;;;;;;;19.70;10.52;;;8.50;70.90;;;;;;4954566;28;20042;-64
2021/03/26 08:12:46;;;;;;;20.50;11.68;;;8.70;70.90;;;;;;4947949;28;20047;-63
2021/03/26 08:15:32;;;;;;;17.95;10.93;;;8.80;70.20;;;;;;4953180;28;20047;-64
2021/03/26 08:18:18;;;;;;;21.15;11.50;;;8.90;70.60;;;;;;4954549;28;20495;-63
2021/03/26 08:21:12;;;;;;;17.42;10.88;;;9.00;70.60;;;;;;4961375;28;20050;-63
2021/03/26 08:23:49;;;;;;;16.88;10.40;;;9.10;70.40;;;;;;4954014;28;20035;-63
2021/03/26 08:26:45;;;;;;;16.65;9.85;;;9.20;69.60;;;;;;4950835;28;20039;-63
2021/03/26 08:29:17;;;;;;;;;;;9.40;69.50;;;;;;4955907;28;20408;-63
2021/03/26 08:32:11;;;;;;;16.50;9.77;;;9.50;69.40;;;;;;4955719;28;19922;-64
2021/03/26 08:35:08;;;;;;;16.27;8.52;;;9.60;68.90;;;;;;4951820;28;21938;-63
2021/03/26 08:38:20;;;;;;;15.27;7.88;;;9.70;68.00;;;;;;4952908;28;20065;-64
2021/03/26 08:41:04;;;;;;;13.07;7.20;;;9.80;67.80;;;;;;4922403;28;20134;-64
2021/03/26 08:43:35;;;;;;;13.67;7.93;;;9.90;67.40;;;;;;4952293;28;20043;-63
2021/03/26 08:46:19;;;;;;;11.68;7.28;;;10.10;67.30;;;;;;4951734;28;20054;-63
2021/03/26 08:49:09;;;;;;;11.35;7.18;;;10.20;66.40;;;;;;4951607;28;20047;-63
2021/03/26 08:51:52;;;;;;;11.75;7.80;;;10.40;65.90;;;;;;4955817;28;20050;-63
2021/03/26 08:54:55;;;;;;;15.43;7.22;;;10.60;65.40;;;;;;4954851;28;20182;-64
2021/03/26 08:58:00;;;;;;;17.48;7.78;;;10.70;65.10;;;;;;4953844;28;20050;-63
2021/03/26 09:01:14;;;;;;;11.55;6.90;;;10.80;65.00;;;;;;4954891;28;20058;-64
2021/03/26 09:04:12;;;;;;;15.30;7.38;;;10.90;64.30;;;;;;4892122;29;20036;-64
2021/03/26 09:07:08;;;;;;;18.15;7.50;;;11.00;64.20;;;;;;4891850;29;20050;-63
2021/03/26 09:09:44;;;;;;;11.13;6.82;;;11.10;63.60;;;;;;4947925;28;20046;-64
2021/03/26 09:12:31;;;;;;;16.05;7.22;;;11.20;63.10;;;;;;4949835;28;20138;-63
2021/03/26 09:15:29;;;;;;;11.13;6.57;;;11.30;62.70;;;;;;4955263;28;20482;-64
2021/03/26 09:18:37;;;;;;;10.20;6.47;;;11.50;62.20;;;;;;4951668;28;20043;-64
2021/03/26 09:21:14;;;;;;;10.02;6.40;;;11.60;62.20;;;;;;4954657;28;20603;-64
2021/03/26 09:24:13;;;;;;;10.88;6.00;;;11.70;61.90;;;;;;4952508;28;20034;-64
2021/03/26 09:27:00;;;;;;;8.68;5.60;;;11.80;61.40;;;;;;4950364;28;20031;-64
2021/03/26 09:29:45;;;;;;;11.80;6.32;;;12.00;61.50;;;;;;4951517;28;20046;-64
2021/03/26 09:32:25;;;;;;;11.85;6.30;;;12.10;61.00;;;;;;4954423;28;20045;-64
2021/03/26 09:35:19;;;;;;;9.02;5.82;;;12.20;61.20;;;;;;4956252;28;20071;-64
2021/03/26 09:38:06;;;;;;;8.68;5.65;;;12.30;60.30;;;;;;4955576;28;20043;-64
2021/03/26 09:41:06;;;;;;;9.85;5.82;;;12.50;60.10;;;;;;4949927;28;20042;-64
2021/03/26 09:43:43;;;;;;;15.52;6.20;;;12.60;59.70;;;;;;4932537;28;20045;-64
2021/03/26 09:46:16;;;;;;;10.27;5.30;;;12.70;59.70;;;;;;4949571;28;20062;-64
2021/03/26 09:49:10;;;;;;;12.07;5.72;;;12.90;59.70;;;;;;4947069;28;20045;-64
2021/03/26 09:52:14;;;;;;;11.70;5.97;;;13.00;59.50;;;;;;4956129;28;20034;-64
2021/03/26 09:54:46;;;;;;;7.10;4.82;;;13.10;59.50;;;;;;4963556;28;20026;-64
2021/03/26 09:57:45;;;;;;;8.75;4.55;;;13.30;58.50;;;;;;4973655;28;20034;-64
2021/03/26 10:00:48;;;;;;;10.45;4.75;;;13.50;56.70;;;;;;4965814;28;20074;-64
2021/03/26 10:03:23;;;;;;;6.35;4.13;;;13.70;56.00;;;;;;4891274;29;20033;-64
2021/03/26 10:06:20;;;;;;;7.53;4.18;;;13.80;56.50;;;;;;4945078;28;20038;-64
2021/03/26 10:09:27;;;;;;;9.32;4.28;;;14.00;55.90;;;;;;4944875;28;20039;-64
2021/03/26 10:11:51;;;;;;;7.72;4.28;;;14.10;55.50;;;;;;4952284;28;20031;-64
2021/03/26 10:14:28;;;;;;;6.30;4.25;;;14.30;55.00;;;;;;4971821;28;20027;-64
2021/03/26 10:17:34;;;;;;;9.30;3.85;;;14.40;54.00;;;;;;4973096;28;20031;-65
2021/03/26 10:20:24;;;;;;;7.00;4.10;;;14.50;53.60;;;;;;4968580;28;20030;-64
2021/03/26 10:22:58;;;;;;;6.97;3.97;;;14.60;53.50;;;;;;4975820;28;20117;-64
2021/03/26 10:25:31;;;;;;;7.88;4.38;;;14.70;53.60;;;;;;4974097;28;20510;-64
2021/03/26 10:28:07;;;;;;;8.30;4.30;;;14.80;52.60;;;;;;4975911;28;20129;-64
2021/03/26 10:30:46;;;;;;;19.92;5.00;;;14.90;52.70;;;;;;4970420;28;20031;-64
2021/03/26 10:33:16;;;;;;;6.82;3.85;;;15.00;52.20;;;;;;4972985;28;20112;-64
2021/03/26 10:36:20;;;;;;;5.28;3.80;;;15.10;53.00;;;;;;4975370;28;20043;-64
2021/03/26 10:39:05;;;;;;;4.43;3.70;;;15.20;51.60;;;;;;4975290;28;20035;-65
2021/03/26 10:42:12;;;;;;;6.00;3.92;;;15.30;51.80;;;;;;4974146;28;20047;-65
2021/03/26 10:45:02;;;;;;;7.85;4.10;;;15.40;52.30;;;;;;4914273;29;20516;-65
2021/03/26 10:47:36;;;;;;;5.72;4.32;;;15.50;50.70;;;;;;4917352;29;20559;-65
2021/03/26 10:50:13;;;;;;;6.45;4.03;;;15.60;50.70;;;;;;4948020;28;20053;-65
2021/03/26 10:52:49;;;;;;;6.03;3.78;;;15.70;50.40;;;;;;4975104;28;20054;-64
2021/03/26 10:55:18;;;;;;;9.23;4.05;;;15.80;50.90;;;;;;4992423;28;20034;-64
2021/03/26 10:57:56;;;;;;;5.63;3.88;;;15.90;50.40;;;;;;4971946;28;20035;-64
2021/03/26 11:00:43;;;;;;;7.95;4.68;;;16.00;49.40;;;;;;4978267;28;20045;-64
2021/03/26 11:03:48;;;;;;;5.30;3.90;;;16.00;48.40;;;;;;4978161;28;20030;-64
2021/03/26 11:06:27;;;;;;;7.57;4.03;;;16.10;49.40;;;;;;4926256;29;20036;-64
2021/03/26 11:09:14;;;;;;;7.15;4.07;;;16.10;49.00;;;;;;4972915;28;20030;-64
2021/03/26 11:12:03;;;;;;;4.80;3.70;;;16.20;49.50;;;;;;4973728;28;20521;-64
2021/03/26 11:14:37;;;;;;;6.28;4.05;;;16.20;49.90;;;;;;4975901;28;20034;-64
2021/03/26 11:17:11;;;;;;;5.57;3.57;;;16.30;49.20;;;;;;4980809;28;20571;-64
2021/03/26 11:19:47;;;;;;;7.53;4.05;;;16.30;48.70;;;;;;4979067;28;20498;-64
2021/03/26 11:22:30;;;;;;;6.03;3.50;;;16.50;48.50;;;;;;4980632;28;20425;-64
2021/03/26 11:25:08;;;;;;;6.43;3.40;;;16.50;48.40;;;;;;4978521;28;20031;-64
2021/03/26 11:27:42;;;;;;;10.30;3.72;;;16.60;48.20;;;;;;4980694;28;20035;-64
2021/03/26 11:30:23;;;;;;;5.47;3.43;;;16.70;48.50;;;;;;4980615;28;20171;-64
2021/03/26 11:33:01;;;;;;;7.97;3.30;;;16.80;47.50;;;;;;4980244;28;20310;-64
2021/03/26 11:35:32;;;;;;;5.38;3.25;;;16.90;46.70;;;;;;4980730;28;20181;-64
2021/03/26 11:38:08;;;;;;;9.02;3.45;;;17.00;47.70;;;;;;4980105;28;20046;-64
2021/03/26 11:40:48;;;;;;;4.05;3.40;;;17.00;46.90;;;;;;4977891;28;20039;-65
2021/03/26 11:43:25;;;;;;;5.93;4.18;;;17.10;46.70;;;;;;4978764;28;20038;-63
2021/03/26 11:46:07;;;;;;;5.65;4.63;;;17.20;46.30;;;;;;4979977;28;20048;-64
2021/03/26 11:48:41;;;;;;;8.20;4.60;;;17.20;45.50;;;;;;4979372;28;20121;-64
2021/03/26 11:51:22;;;;;;;6.27;4.50;;;17.30;46.10;;;;;;4980139;28;20513;-65
2021/03/26 11:54:12;;;;;;;7.22;5.22;;;17.30;46.10;;;;;;4979260;28;20106;-64
2021/03/26 11:56:40;;;;;;;7.03;4.65;;;17.30;45.90;;;;;;4976595;28;20041;-64
2021/03/26 11:59:20;;;;;;;7.68;4.30;;;17.40;47.10;;;;;;4977301;28;20081;-64
2021/03/26 12:02:00;;;;;;;6.13;5.10;;;17.40;46.60;;;;;;4977985;28;20522;-65
2021/03/26 12:04:42;;;;;;;8.55;5.28;;;17.50;46.20;;;;;;4979308;28;20413;-65
2021/03/26 12:07:13;;;;;;;6.07;4.75;;;17.50;45.30;;;;;;4980034;28;20027;-65
2021/03/26 12:09:54;;;;;;;8.20;4.82;;;17.60;45.90;;;;;;4976086;28;20059;-65
2021/03/26 12:12:36;;;;;;;7.78;4.57;;;17.60;45.70;;;;;;4974852;28;20031;-64
2021/03/26 12:15:13;;;;;;;7.32;4.55;;;17.70;45.60;;;;;;4974839;28;20441;-65
2021/03/26 12:18:04;;;;;;;3.75;3.35;;;17.70;44.70;;;;;;4977102;28;20061;-65
2021/03/26 12:20:41;;;;;;;3.83;3.28;;;17.80;44.70;;;;;;4978398;28;20061;-65
2021/03/26 12:23:28;;;;;;;3.03;2.60;;;17.80;44.20;;;;;;4979603;28;20062;-65
2021/03/26 12:26:11;;;;;;;3.53;1.85;;;17.80;43.90;;;;;;4977689;28;20031;-65
2021/03/26 12:29:14;;;;;;;4.25;2.22;;;17.90;41.90;;;;;;4978853;28;20030;-64
2021/03/26 12:31:54;;;;;;;3.50;2.50;;;17.90;41.00;;;;;;4978206;28;20161;-65
2021/03/26 12:34:34;;;;;;;3.30;1.90;;;18.00;40.90;;;;;;4979324;28;20042;-64
2021/03/26 12:37:06;;;;;;;5.25;1.95;;;18.00;40.30;;;;;;4978576;28;20034;-65
2021/03/26 12:39:40;;;;;;;2.80;1.65;;;18.00;40.30;;;;;;4976068;28;20035;-64
2021/03/26 12:42:11;;;;;;;3.67;1.98;;;18.00;39.80;;;;;;4979024;28;20038;-64
2021/03/26 12:44:52;;;;;;;3.13;2.13;;;18.00;39.80;;;;;;4972445;28;20084;-65
2021/03/26 12:47:44;;;;;;;2.47;1.95;;;18.00;39.80;;;;;;4968148;28;20714;-64
2021/03/26 12:50:36;;;;;;;4.78;1.92;;;18.00;39.80;;;;;;4974048;28;20077;-64
2021/03/26 12:53:20;;;;;;;2.50;2.30;;;18.10;40.40;;;;;;4974757;28;20108;-64
2021/03/26 12:56:01;;;;;;;5.47;2.53;;;18.10;40.60;;;;;;4974435;28;20273;-64
2021/03/26 12:59:11;;;;;;;5.18;2.42;;;18.20;40.40;;;;;;4975342;28;20038;-65
2021/03/26 13:01:50;;;;;;;3.10;2.80;;;18.20;40.00;;;;;;4948351;28;20043;-64
2021/03/26 13:04:31;;;;;;;4.50;3.00;;;18.20;39.60;;;;;;4962415;28;20086;-64
2021/03/26 13:07:02;;;;;;;4.05;2.45;;;18.20;40.30;;;;;;4974807;28;20506;-65
2021/03/26 13:09:50;;;;;;;4.40;2.67;;;18.20;41.50;;;;;;4975858;28;20418;-65
2021/03/26 13:12:27;;;;;;;5.70;2.80;;;18.30;41.00;;;;;;4967615;28;20109;-65
2021/03/26 13:15:01;;;;;;;5.05;3.05;;;18.20;40.60;;;;;;4970266;28;20510;-65
2021/03/26 13:17:32;;;;;;;5.70;2.80;;;18.30;41.40;;;;;;4969613;28;20041;-65
2021/03/26 13:20:13;;;;;;;5.68;2.92;;;18.30;41.10;;;;;;4975691;28;20034;-65
2021/03/26 13:22:47;;;;;;;3.78;2.83;;;18.30;39.50;;;;;;4968835;28;20494;-64
2021/03/26 13:25:23;;;;;;;8.32;2.85;;;18.30;40.20;;;;;;4968105;28;20034;-64
2021/03/26 13:28:05;;;;;;;3.80;2.92;;;18.30;39.50;;;;;;4968466;28;20121;-64
2021/03/26 13:30:44;;;;;;;3.72;2.72;;;18.30;40.20;;;;;;4970178;28;20061;-65
2021/03/26 13:33:24;;;;;;;4.70;2.83;;;18.30;40.20;;;;;;4970028;28;20438;-64
2021/03/26 13:36:00;;;;;;;5.30;2.95;;;18.30;40.30;;;;;;4965049;28;20038;-64
2021/03/26 13:38:40;;;;;;;5.85;2.78;;;18.30;40.30;;;;;;4971682;28;20038;-65
2021/03/26 13:41:27;;;;;;;4.03;3.00;;;18.30;40.20;;;;;;4985622;28;20081;-64
2021/03/26 13:44:14;;;;;;;6.03;3.22;;;18.30;40.90;;;;;;4967680;28;20039;-64
2021/03/26 13:46:43;;;;;;;6.25;3.13;;;18.40;40.30;;;;;;4957312;28;20133;-64
2021/03/26 13:49:16;;;;;;;5.38;2.78;;;18.40;40.70;;;;;;4974283;28;20038;-64
2021/03/26 13:51:46;;;;;;;5.75;2.95;;;18.40;40.70;;;;;;4974616;28;20039;-64
2021/03/26 13:54:22;;;;;;;5.10;2.85;;;18.40;40.30;;;;;;4972085;28;20162;-64
2021/03/26 13:56:55;;;;;;;3.72;2.78;;;18.50;39.30;;;;;;4971927;28;20042;-65
2021/03/26 13:59:49;;;;;;;4.63;2.65;;;18.50;39.40;;;;;;4957683;28;20045;-65
2021/03/26 14:02:35;;;;;;;4.90;2.88;;;18.50;38.10;;;;;;4974572;28;20038;-65
2021/03/26 14:05:29;;;;;;;5.68;2.97;;;18.50;38.00;;;;;;4972312;28;21171;-64